Wuhan, China
Current Conditions -  °F | °C
As of 6:00 PM on Sunday 25 Jan 2015 (Local Time) from ZHHH Reporting Station
Haze Haze  
Wind Chill: 40°   Ceiling: Unl
Heat Index: 45°   Visibility: 1.1mi
Dew Point: 37°   Wind: 9mph
Humidity: 76%   Direction: 50°NE
Pressure: 30.21"   Gusts: NA
Location:  30.58°N, 114.27°E
Report Text: ZHHH 251000Z 05004MPS 1800 HZ NSC 07/03 Q1023 NOSIG
Loading
Personal Weather Stations






























Interactive Weather Map New forecast layout! Learn more

10-Day Weather Forecast

Advertisements
Track Severe Weather on mobile